Time;durP1;ratioP1;P1;durP2;ratioP2;P2;SDS_P1;SDS_P2;PMS_P1;PMS_P2;Temp;Humidity;BMP_temperature;BMP_pressure;BME280_temperature;BME280_humidity;BME280_pressure;Samples;Min_cycle;Max_cycle;Signal;HPM_P1;HPM_P2
2022/08/22 00:01:42;;;;;;;4.27;3.63;;;;;;;13.88;100.00;100800.63;5057725;28;20206;-76
2022/08/22 00:04:16;;;;;;;3.53;3.10;;;;;;;13.76;100.00;100807.19;5061800;28;20693;-76
2022/08/22 00:06:52;;;;;;;3.50;3.00;;;;;;;13.73;100.00;100804.69;5066432;28;20218;-77
2022/08/22 00:09:29;;;;;;;4.00;3.23;;;;;;;13.76;100.00;100810.66;5063064;28;20227;-76
2022/08/22 00:12:07;;;;;;;3.37;2.93;;;;;;;13.74;100.00;100812.50;5063495;28;20256;-76
2022/08/22 00:14:39;;;;;;;3.40;3.10;;;;;;;13.67;100.00;100810.13;5060954;28;20194;-77
2022/08/22 00:17:21;;;;;;;3.90;3.13;;;;;;;13.60;100.00;100812.13;5059505;28;20193;-77
2022/08/22 00:19:55;;;;;;;3.73;3.13;;;;;;;13.54;100.00;100802.72;5065989;28;20217;-77
2022/08/22 00:22:31;;;;;;;4.27;3.57;;;;;;;13.61;100.00;100803.34;5064012;28;20574;-76
2022/08/22 00:25:12;;;;;;;4.20;3.47;;;;;;;13.64;100.00;100801.47;5065316;28;20194;-76
2022/08/22 00:27:51;;;;;;;3.83;3.43;;;;;;;13.65;100.00;100802.34;5059949;28;20226;-77
2022/08/22 00:30:18;;;;;;;4.37;3.37;;;;;;;13.69;100.00;100803.09;5058241;28;20583;-77
2022/08/22 00:32:49;;;;;;;4.70;3.87;;;;;;;13.68;100.00;100810.09;5061387;28;20203;-77
2022/08/22 00:35:23;;;;;;;4.17;3.43;;;;;;;13.72;100.00;100810.81;5061534;28;20207;-76
2022/08/22 00:38:03;;;;;;;4.47;4.03;;;;;;;13.63;100.00;100804.16;5061313;28;20220;-77
2022/08/22 00:40:45;;;;;;;3.90;3.50;;;;;;;13.68;100.00;100815.31;5063334;28;20251;-77
2022/08/22 00:43:47;;;;;;;6.20;4.70;;;;;;;13.53;100.00;100808.03;5054769;28;20591;-77
2022/08/22 00:46:36;;;;;;;4.53;3.97;;;;;;;13.68;100.00;100810.09;5062500;28;20228;-77
2022/08/22 00:49:13;;;;;;;5.43;4.33;;;;;;;13.68;100.00;100804.84;5061119;28;20225;-77
2022/08/22 00:52:17;;;;;;;5.30;4.70;;;;;;;13.55;100.00;100809.69;5062962;28;20358;-77
2022/08/22 00:54:59;;;;;;;4.57;4.17;;;;;;;13.55;100.00;100807.06;5065403;28;20201;-77
2022/08/22 00:57:44;;;;;;;5.73;4.00;;;;;;;13.57;100.00;100805.22;5055356;28;20199;-77
2022/08/22 01:00:17;;;;;;;5.40;3.80;;;;;;;13.55;100.00;100811.44;5060140;28;20297;-77
2022/08/22 01:03:06;;;;;;;5.97;4.27;;;;;;;13.50;100.00;100793.25;5064346;28;20213;-77
2022/08/22 01:05:50;;;;;;;4.77;3.70;;;;;;;13.55;100.00;100798.34;5054110;28;20206;-77
2022/08/22 01:08:31;;;;;;;4.13;3.47;;;;;;;13.53;100.00;100808.03;5060756;28;20226;-76
2022/08/22 01:11:12;;;;;;;8.17;3.87;;;;;;;13.55;100.00;100804.44;5059292;28;20206;-77
2022/08/22 01:14:03;;;;;;;5.70;3.87;;;;;;;13.56;100.00;100802.66;5064236;28;20213;-77
2022/08/22 01:16:53;;;;;;;3.80;3.50;;;;;;;13.51;100.00;100797.59;5065532;28;20555;-77
2022/08/22 01:19:42;;;;;;;4.93;3.93;;;;;;;13.46;100.00;100799.53;5062533;28;20230;-77
2022/08/22 01:22:31;;;;;;;3.87;3.37;;;;;;;13.50;100.00;100810.75;5060587;28;20207;-77
2022/08/22 01:25:51;;;;;;;3.80;3.37;;;;;;;13.57;100.00;100813.09;5058267;28;20659;-77
2022/08/22 01:28:43;;;;;;;4.17;3.70;;;;;;;13.51;100.00;100815.06;4993726;28;20804;-77
2022/08/22 01:32:04;;;;;;;4.27;3.87;;;;;;;13.59;100.00;100813.03;5054542;28;20256;-77
2022/08/22 01:35:01;;;;;;;4.57;3.63;;;;;;;13.49;100.00;100804.66;5057245;28;20211;-77
2022/08/22 01:37:53;;;;;;;4.63;3.50;;;;;;;13.61;100.00;100808.59;5022879;28;20206;-77
2022/08/22 01:40:40;;;;;;;4.70;3.83;;;;;;;13.53;100.00;100810.66;5054970;28;20424;-77
2022/08/22 01:43:17;;;;;;;3.40;3.10;;;;;;;13.47;100.00;100811.69;5058685;28;20216;-77
2022/08/22 01:46:19;;;;;;;3.50;3.10;;;;;;;13.51;100.00;100807.22;5060187;28;20198;-77
2022/08/22 01:48:51;;;;;;;5.20;3.73;;;;;;;13.50;100.00;100810.75;5045871;28;20591;-76
2022/08/22 01:51:23;;;;;;;3.90;3.50;;;;;;;13.54;100.00;100807.94;5059949;28;20214;-77
2022/08/22 01:53:58;;;;;;;3.20;2.90;;;;;;;13.53;100.00;100813.28;5056656;28;20209;-77
2022/08/22 01:56:31;;;;;;;4.97;3.47;;;;;;;13.51;100.00;100809.81;5059621;28;20879;-77
2022/08/22 01:59:00;;;;;;;5.10;3.60;;;;;;;13.48;100.00;100809.97;5060183;28;20234;-77
2022/08/22 02:01:40;;;;;;;4.13;3.57;;;;;;;13.47;100.00;100816.94;5057579;28;20569;-77
2022/08/22 02:04:14;;;;;;;4.07;3.60;;;;;;;13.50;100.00;100808.97;5064131;28;20201;-77
2022/08/22 02:06:52;;;;;;;3.73;3.03;;;;;;;13.38;100.00;100812.88;5060989;28;20226;-77
2022/08/22 02:09:31;;;;;;;4.07;3.57;;;;;;;13.37;100.00;100816.41;5056116;28;20596;-77
2022/08/22 02:12:12;;;;;;;3.37;2.80;;;;;;;13.42;100.00;100819.75;5057911;28;20405;-77
2022/08/22 02:14:44;;;;;;;3.60;3.30;;;;;;;13.30;100.00;100808.78;5063335;28;20227;-77
2022/08/22 02:17:18;;;;;;;3.70;3.30;;;;;;;13.36;100.00;100813.84;5061621;28;20195;-77
2022/08/22 02:19:54;;;;;;;4.90;3.80;;;;;;;13.38;100.00;100812.03;5058332;28;20852;-77
2022/08/22 02:22:32;;;;;;;3.90;3.50;;;;;;;13.36;100.00;100813.84;5058992;28;20198;-77
2022/08/22 02:25:06;;;;;;;4.60;3.33;;;;;;;13.35;100.00;100812.13;5063309;28;20201;-76
2022/08/22 02:27:38;;;;;;;5.70;3.27;;;;;;;13.22;100.00;100809.06;5060110;28;20280;-77
2022/08/22 02:30:09;;;;;;;3.97;3.40;;;;;;;13.26;100.00;100810.66;5060130;28;20594;-77
2022/08/22 02:32:51;;;;;;;4.77;3.30;;;;;;;13.49;100.00;100814.28;5065507;28;20203;-76
2022/08/22 02:35:25;;;;;;;3.90;3.50;;;;;;;13.40;100.00;100813.69;5066432;28;20199;-77
2022/08/22 02:38:03;;;;;;;3.50;3.20;;;;;;;13.31;100.00;100806.13;5065281;28;20229;-77
2022/08/22 02:40:37;;;;;;;4.33;3.20;;;;;;;13.35;100.00;100815.63;5064187;28;20218;-77
2022/08/22 02:43:14;;;;;;;4.10;3.70;;;;;;;13.32;100.00;100810.47;5067349;28;20202;-77
2022/08/22 02:45:48;;;;;;;3.50;3.20;;;;;;;13.39;100.00;100805.91;5060668;28;20217;-77
2022/08/22 02:48:27;;;;;;;4.23;3.63;;;;;;;13.49;100.00;100815.16;5070309;28;20553;-77
2022/08/22 02:50:59;;;;;;;3.57;3.17;;;;;;;13.36;100.00;100814.69;5061742;28;20403;-77
2022/08/22 02:53:37;;;;;;;3.83;3.37;;;;;;;13.30;100.00;100811.41;5055694;28;20210;-76
2022/08/22 02:56:08;;;;;;;3.63;3.20;;;;;;;13.36;100.00;100812.06;5059612;28;20206;-77
2022/08/22 02:58:42;;;;;;;5.27;3.00;;;;;;;13.34;100.00;100811.28;5063001;28;20714;-77
2022/08/22 03:01:17;;;;;;;4.40;3.30;;;;;;;13.31;100.00;100810.50;5061732;28;20659;-76
2022/08/22 03:03:47;;;;;;;3.23;2.93;;;;;;;13.22;100.00;100809.06;5060214;28;20213;-76
2022/08/22 03:06:33;;;;;;;4.20;3.30;;;;;;;13.09;100.00;100800.78;5053882;28;20208;-77
2022/08/22 03:09:18;;;;;;;3.63;3.23;;;;;;;13.19;100.00;100803.91;5069846;28;20218;-77
2022/08/22 03:11:48;;;;;;;3.50;3.20;;;;;;;13.17;100.00;100800.50;5058870;28;20206;-76
2022/08/22 03:14:23;;;;;;;3.60;3.30;;;;;;;13.27;100.00;100801.91;5057607;28;20260;-77
2022/08/22 03:16:58;;;;;;;5.37;3.73;;;;;;;13.13;100.00;100804.97;5063244;28;20206;-76
2022/08/22 03:19:31;;;;;;;3.77;3.20;;;;;;;13.23;100.00;100801.16;5058553;28;20243;-76
2022/08/22 03:22:02;;;;;;;3.97;3.40;;;;;;;13.38;100.00;100810.25;5058684;28;20214;-76
2022/08/22 03:24:39;;;;;;;3.27;2.97;;;;;;;13.34;100.00;100805.19;5058042;28;20198;-77
2022/08/22 03:27:12;;;;;;;4.23;3.57;;;;;;;13.30;100.00;100807.03;5064842;28;20225;-77
2022/08/22 03:29:44;;;;;;;4.03;3.20;;;;;;;13.17;100.00;100803.97;5060126;28;20223;-77
2022/08/22 03:32:13;;;;;;;3.80;3.40;;;;;;;13.26;100.00;100802.78;5064732;28;20637;-77
2022/08/22 03:34:55;;;;;;;4.80;3.03;;;;;;;13.30;100.00;100803.53;5062515;28;20203;-77
2022/08/22 03:37:31;;;;;;;4.57;3.50;;;;;;;13.20;100.00;100797.78;5060143;28;20747;-77
2022/08/22 03:40:06;;;;;;;3.63;3.10;;;;;;;13.22;100.00;100803.81;5055859;28;20713;-77
2022/08/22 03:43:10;;;;;;;3.70;3.27;;;;;;;13.37;100.00;100815.56;5056904;28;20210;-77
2022/08/22 03:45:56;;;;;;;3.07;2.77;;;;;;;13.16;100.00;100804.88;5056190;28;20195;-77
2022/08/22 03:49:05;;;;;;;4.20;3.20;;;;;;;13.10;100.00;100806.84;5055608;28;20598;-77
2022/08/22 03:51:43;;;;;;;3.40;3.10;;;;;;;13.08;100.00;100812.97;5057740;28;20199;-77
2022/08/22 03:54:48;;;;;;;3.83;3.40;;;;;;;13.11;100.00;100806.81;5061943;28;20674;-77
2022/08/22 03:57:43;;;;;;;3.57;3.20;;;;;;;13.19;100.00;100812.66;5066407;28;20198;-77
2022/08/22 04:00:50;;;;;;;3.80;3.40;;;;;;;13.19;100.00;100809.16;5058212;28;20213;-77
2022/08/22 04:03:54;;;;;;;3.47;3.17;;;;;;;13.25;100.00;100807.19;5038792;28;20229;-77
2022/08/22 04:06:56;;;;;;;3.90;3.50;;;;;;;13.16;100.00;100806.66;5061401;28;20207;-77
2022/08/22 04:09:44;;;;;;;3.63;3.27;;;;;;;13.19;100.00;100803.91;5046029;28;20788;-77
2022/08/22 04:12:30;;;;;;;4.43;3.23;;;;;;;13.26;100.00;100808.91;5056023;28;20206;-77
2022/08/22 04:15:30;;;;;;;6.50;3.90;;;;;;;13.29;100.00;100805.31;5056797;28;20482;-77
2022/08/22 04:18:23;;;;;;;4.03;3.17;;;;;;;13.27;100.00;100815.00;5054027;28;20284;-77
2022/08/22 04:21:11;;;;;;;4.63;3.57;;;;;;;13.29;100.00;100809.72;5052110;28;20210;-77
2022/08/22 04:24:09;;;;;;;3.83;3.40;;;;;;;13.29;100.00;100813.16;5053054;28;20574;-77
2022/08/22 04:26:44;;;;;;;4.53;3.83;;;;;;;13.26;100.00;100824.63;5051559;28;20708;-77
2022/08/22 04:29:19;;;;;;;3.47;3.17;;;;;;;13.30;100.00;100817.50;5051770;28;20938;-77
2022/08/22 04:31:49;;;;;;;4.20;3.80;;;;;;;13.32;100.00;100828.81;5049309;28;20205;-77
2022/08/22 04:34:22;;;;;;;4.53;4.13;;;;;;;13.36;100.00;100833.03;5059540;28;20203;-77
2022/08/22 04:36:56;;;;;;;4.27;3.83;;;;;;;13.51;100.00;100830.78;5054818;28;20205;-77
2022/08/22 04:39:35;;;;;;;4.77;4.27;;;;;;;13.54;100.00;100835.91;5051039;28;20646;-77
2022/08/22 04:42:07;;;;;;;5.10;4.57;;;;;;;13.56;100.00;100839.34;5061328;28;20216;-77
2022/08/22 04:44:42;;;;;;;5.20;4.50;;;;;;;13.47;100.00;100837.88;5052510;28;20242;-77
2022/08/22 04:47:24;;;;;;;6.77;5.20;;;;;;;13.66;100.00;100834.63;5057255;28;20206;-77
2022/08/22 04:49:56;;;;;;;5.40;4.40;;;;;;;13.79;100.00;100838.50;5053267;28;20195;-77
2022/08/22 04:52:32;;;;;;;6.00;4.80;;;;;;;13.71;100.00;100841.41;5054960;28;20203;-77
2022/08/22 04:55:14;;;;;;;5.77;4.47;;;;;;;13.64;100.00;100846.00;5048869;28;20906;-77
2022/08/22 04:57:50;;;;;;;7.37;5.10;;;;;;;13.79;100.00;100844.63;5050961;28;20203;-77
2022/08/22 05:00:18;;;;;;;6.20;5.23;;;;;;;13.72;100.00;100844.88;5048080;28;20207;-77
2022/08/22 05:02:50;;;;;;;5.57;4.87;;;;;;;13.83;100.00;100850.63;5050042;28;20206;-77
2022/08/22 05:05:20;;;;;;;12.60;4.97;;;;;;;13.88;100.00;100847.81;5052483;28;20221;-77
2022/08/22 05:07:52;;;;;;;6.10;5.10;;;;;;;13.94;100.00;100856.31;5061312;28;20735;-77
2022/08/22 05:10:22;;;;;;;7.37;5.07;;;;;;;13.94;100.00;100856.31;5057580;28;20207;-77
2022/08/22 05:12:54;;;;;;;6.63;5.47;;;;;;;13.99;100.00;100857.00;5060339;28;20290;-77
2022/08/22 05:15:26;;;;;;;7.27;5.27;;;;;;;14.12;100.00;100859.16;5062316;28;20210;-77
2022/08/22 05:17:55;;;;;;;9.17;5.70;;;;;;;13.96;100.00;100851.84;5058297;28;20285;-77
2022/08/22 05:20:25;;;;;;;6.80;5.43;;;;;;;13.93;100.00;100858.97;5062891;28;20210;-77
2022/08/22 05:22:58;;;;;;;6.53;5.57;;;;;;;13.92;100.00;100866.00;5054077;28;20211;-77
2022/08/22 05:25:29;;;;;;;8.10;5.90;;;;;;;13.83;100.00;100869.81;5050897;28;20199;-77
2022/08/22 05:28:09;;;;;;;6.67;5.97;;;;;;;14.10;100.00;100874.09;5054932;28;20497;-77
2022/08/22 05:30:38;;;;;;;8.77;6.87;;;;;;;14.18;100.00;100869.44;5051193;28;20210;-77
2022/08/22 05:33:15;;;;;;;7.43;5.97;;;;;;;14.29;100.00;100869.03;5057481;28;20206;-77
2022/08/22 05:35:46;;;;;;;7.53;6.50;;;;;;;14.21;100.00;100877.16;5057021;28;20203;-77
2022/08/22 05:38:15;;;;;;;8.63;6.83;;;;;;;14.16;100.00;100879.13;5060022;28;20225;-77
2022/08/22 05:40:43;;;;;;;7.47;6.10;;;;;;;14.22;100.00;100883.28;5060233;28;20229;-77
2022/08/22 05:43:12;;;;;;;8.63;7.20;;;;;;;14.31;100.00;100875.06;5058955;28;20205;-77
2022/08/22 05:45:45;;;;;;;7.70;6.07;;;;;;;14.40;100.00;100879.97;5061310;28;20210;-77
2022/08/22 05:48:17;;;;;;;7.83;6.63;;;;;;;14.28;100.00;100883.94;5054859;28;20732;-77
2022/08/22 05:50:48;;;;;;;7.60;6.27;;;;;;;14.38;100.00;100881.78;5054858;28;20206;-77
2022/08/22 05:53:21;;;;;;;9.97;6.67;;;;;;;14.48;100.00;100884.94;5062010;28;20617;-77
2022/08/22 05:55:56;;;;;;;7.80;5.70;;;;;;;14.68;100.00;100887.66;5054902;28;20216;-76
2022/08/22 05:58:44;;;;;;;7.47;6.17;;;;;;;14.60;100.00;100894.13;5058366;28;20228;-77
2022/08/22 06:01:21;;;;;;;7.03;6.20;;;;;;;14.67;100.00;100892.97;5054580;28;20227;-77
2022/08/22 06:03:58;;;;;;;8.83;6.87;;;;;;;14.82;100.00;100894.16;5063143;28;20211;-77
2022/08/22 06:06:27;;;;;;;9.10;6.33;;;;;;;14.90;100.00;100892.94;5060774;28;20579;-77
2022/08/22 06:09:01;;;;;;;11.03;6.60;;;;;;;14.98;100.00;100891.78;5056753;28;20226;-77
2022/08/22 06:11:33;;;;;;;7.07;6.10;;;;;;;15.07;100.00;100894.00;5060729;28;20281;-77
2022/08/22 06:14:12;;;;;;;7.73;6.40;;;;;;;15.05;100.00;100894.06;5065194;28;20256;-77
2022/08/22 06:16:44;;;;;;;7.13;5.93;;;;;;;15.18;100.00;100897.06;5060318;28;20582;-76
2022/08/22 06:19:14;;;;;;;8.03;6.20;;;;;;;15.32;100.00;100897.34;5061841;28;20268;-76
2022/08/22 06:21:43;;;;;;;6.13;5.47;;;;;;;15.39;100.00;100897.97;5059794;28;20655;-76
2022/08/22 06:24:17;;;;;;;7.00;6.20;;;;;;;15.47;100.00;100898.47;5067220;28;20705;-76
2022/08/22 06:26:47;;;;;;;6.70;6.00;;;;;;;15.53;100.00;100900.84;5057534;28;20197;-76
2022/08/22 06:29:20;;;;;;;7.47;5.60;;;;;;;15.56;100.00;100899.84;5060346;28;20667;-76
2022/08/22 06:31:49;;;;;;;6.90;5.43;;;;;;;15.53;100.00;100903.47;5059585;28;20195;-76
2022/08/22 06:34:21;;;;;;;6.43;5.67;;;;;;;15.54;100.00;100906.94;5060972;28;20597;-76
2022/08/22 06:36:50;;;;;;;6.37;5.13;;;;;;;15.62;100.00;100901.34;5061175;28;20666;-76
2022/08/22 06:39:21;;;;;;;5.83;5.17;;;;;;;15.73;100.00;100903.56;5059258;28;20218;-76
2022/08/22 06:41:52;;;;;;;6.27;5.33;;;;;;;15.77;100.00;100897.25;5061187;28;20271;-76
2022/08/22 06:44:23;;;;;;;6.37;5.40;;;;;;;15.82;100.00;100901.41;5060112;28;20200;-76
2022/08/22 06:46:55;;;;;;;6.43;5.17;;;;;;;15.95;100.00;100906.13;5053799;28;20203;-76
2022/08/22 06:49:22;;;;;;;5.97;5.00;;;;;;;15.95;100.00;100908.75;5059933;28;20234;-76
2022/08/22 06:51:50;;;;;;;7.20;5.20;;;;;;;15.96;100.00;100910.47;5064464;28;20199;-76
2022/08/22 06:54:20;;;;;;;6.80;4.80;;;;;;;16.03;100.00;100907.50;5055162;28;20211;-76
2022/08/22 06:56:50;;;;;;;6.10;4.40;;;;;;;16.11;100.00;100909.75;5062345;28;20272;-76
2022/08/22 06:59:22;;;;;;;6.50;4.57;;;;;;;16.26;100.00;100913.50;5061062;28;20222;-76
2022/08/22 07:01:54;;;;;;;6.13;4.80;;;;;;;16.40;100.00;100913.72;5066301;28;20234;-76
2022/08/22 07:04:25;;;;;;;5.63;4.87;;;;;;;16.51;100.00;100913.22;5061895;28;20207;-76
2022/08/22 07:06:53;;;;;;;6.83;4.67;;;;;;;16.61;100.00;100917.13;5058721;28;20617;-76
2022/08/22 07:09:25;;;;;;;4.63;4.00;;;;;;;16.73;100.00;100917.50;5063094;28;20805;-76
2022/08/22 07:11:53;;;;;;;4.93;4.37;;;;;;;16.77;100.00;100916.41;5063411;28;20587;-76
2022/08/22 07:14:27;;;;;;;5.90;4.70;;;;;;;16.86;100.00;100909.91;5062316;28;20201;-77
2022/08/22 07:16:58;;;;;;;5.27;4.77;;;;;;;16.82;100.00;100917.06;5063419;28;20203;-76
2022/08/22 07:19:27;;;;;;;5.80;4.60;;;;;;;16.79;100.00;100917.19;5062356;28;20237;-76
2022/08/22 07:21:54;;;;;;;4.50;4.10;;;;;;;16.88;100.00;100919.41;5063610;28;20199;-76
2022/08/22 07:24:25;;;;;;;5.63;4.43;;;;;;;17.04;100.00;100919.53;5065346;28;20221;-76
2022/08/22 07:27:07;;;;;;;7.07;4.20;;;;;;;17.18;100.00;100921.50;5067141;28;20281;-76
2022/08/22 07:29:44;;;;;;;5.83;4.17;;;;;;;17.22;100.00;100929.19;5066434;28;20217;-76
2022/08/22 07:32:16;;;;;;;5.73;4.37;;;;;;;17.16;100.00;100920.72;5064167;28;20678;-76
2022/08/22 07:35:02;;;;;;;5.20;4.10;;;;;;;17.26;100.00;100918.50;5066187;28;20194;-76
2022/08/22 07:37:42;;;;;;;6.20;4.17;;;;;;;17.38;100.00;100917.88;5070023;28;20199;-76
2022/08/22 07:40:18;;;;;;;4.50;4.10;;;;;;;17.51;100.00;100920.75;5067811;28;20225;-76
2022/08/22 07:43:14;;;;;;;5.13;3.93;;;;;;;17.63;100.00;100922.78;5062209;28;20209;-76
2022/08/22 07:45:48;;;;;;;4.87;4.03;;;;;;;17.71;100.00;100923.25;5058784;28;20202;-76
2022/08/22 07:48:22;;;;;;;6.07;4.47;;;;;;;17.85;100.00;100917.22;5059621;28;20221;-76
2022/08/22 07:50:58;;;;;;;5.13;3.90;;;;;;;17.92;100.00;100923.94;5061338;28;20212;-76
2022/08/22 07:53:39;;;;;;;4.83;3.47;;;;;;;18.04;100.00;100924.22;5063511;28;20209;-76
2022/08/22 07:56:09;;;;;;;8.27;4.00;;;;;;;18.12;100.00;100922.03;5065097;28;20194;-76
2022/08/22 07:58:39;;;;;;;5.73;3.70;;;;;;;18.17;100.00;100923.50;5065729;28;20728;-76
2022/08/22 08:01:09;;;;;;;6.53;3.80;;;;;;;18.29;100.00;100921.13;5059880;28;20453;-76
2022/08/22 08:03:38;;;;;;;5.70;4.13;;;;;;;18.44;100.00;100925.59;5059258;28;20265;-76
2022/08/22 08:06:05;;;;;;;7.40;4.50;;;;;;;18.52;100.00;100923.38;5060512;28;20206;-76
2022/08/22 08:08:35;;;;;;;4.83;3.77;;;;;;;18.53;100.00;100937.44;5065437;28;20225;-76
2022/08/22 08:11:03;;;;;;;4.73;3.93;;;;;;;18.67;100.00;100929.59;5062492;28;20466;-76
2022/08/22 08:14:10;;;;;;;4.80;3.73;;;;;;;18.69;100.00;100945.38;5063461;28;20229;-76
2022/08/22 08:16:50;;;;;;;4.40;3.83;;;;;;;18.82;100.00;100940.28;5060868;28;20769;-76
2022/08/22 08:19:19;;;;;;;5.53;3.63;;;;;;;19.06;100.00;100941.53;5063938;28;20214;-76
2022/08/22 08:21:49;;;;;;;4.97;3.77;;;;;;;19.08;100.00;100937.06;5069082;28;20257;-76
2022/08/22 08:24:20;;;;;;;4.77;3.10;;;;;;;19.18;100.00;100940.00;5069000;28;20206;-76
2022/08/22 08:29:37;;;;;;;3.93;3.53;;;;;;;19.42;100.00;100936.91;5058867;28;20222;-76
2022/08/22 08:32:06;;;;;;;7.50;3.53;;;;;;;19.56;100.00;100934.28;5061974;28;20206;-76
2022/08/22 08:34:35;;;;;;;5.60;3.20;;;;;;;19.61;100.00;100939.28;5063335;28;20609;-76
2022/08/22 08:37:08;;;;;;;3.90;3.60;;;;;;;19.59;100.00;100931.44;5059095;28;20237;-76
2022/08/22 08:39:37;;;;;;;3.90;3.50;;;;;;;19.76;100.00;100934.94;5057234;28;20563;-76
2022/08/22 08:42:22;;;;;;;2.63;2.43;;;;;;;19.75;100.00;100943.78;5056785;28;20621;-76
2022/08/22 08:45:22;;;;;;;4.27;2.57;;;;;;;19.61;100.00;100944.56;5063917;28;20207;-76
2022/08/22 08:48:03;;;;;;;4.23;2.57;;;;;;;19.67;100.00;100947.72;5061409;28;20214;-76
2022/08/22 08:50:49;;;;;;;4.23;2.60;;;;;;;19.65;100.00;100940.84;5065880;28;20225;-76
2022/08/22 08:53:57;;;;;;;3.97;2.63;;;;;;;19.72;100.00;100944.81;5070805;28;20198;-76
2022/08/22 08:56:31;;;;;;;5.40;2.87;;;;;;;19.74;100.00;100948.25;5057207;28;20201;-76
2022/08/22 08:59:10;;;;;;;2.53;2.20;;;;;;;19.80;100.00;100945.22;5063952;28;20221;-76
2022/08/22 09:02:03;;;;;;;4.77;2.40;;;;;;;20.04;100.00;100948.19;5052163;28;20202;-76
2022/08/22 09:04:45;;;;;;;3.27;1.97;;;;;;;20.08;100.00;100948.84;5062403;28;20544;-77
2022/08/22 09:07:36;;;;;;;2.67;2.13;;;;;;;20.09;100.00;100939.97;5059154;28;20211;-77
2022/08/22 09:10:21;;;;;;;3.27;2.00;;;;;;;20.10;100.00;100949.59;5059351;28;20555;-76
2022/08/22 09:13:11;;;;;;;2.73;2.10;;;;;;;20.23;100.00;100952.38;5062241;28;20221;-76
2022/08/22 09:15:59;;;;;;;3.03;2.13;;;;;;;20.27;100.00;100951.22;5060509;28;20199;-76
2022/08/22 09:18:43;;;;;;;4.17;2.20;;;;;;;20.11;100.00;100953.97;5059741;28;20218;-76
2022/08/22 09:21:29;;;;;;;2.40;2.20;;;;;;;20.08;100.00;100950.66;5063947;28;20221;-76
2022/08/22 09:24:19;;;;;;;3.93;2.20;;;;;;;20.36;100.00;100953.28;5064164;28;20218;-76
2022/08/22 09:26:49;;;;;;;4.23;2.33;;;;;;;20.34;100.00;100952.53;5057384;28;20203;-76
2022/08/22 09:29:35;;;;;;;2.40;2.20;;;;;;;20.41;100.00;100948.56;5059428;28;20233;-76
2022/08/22 09:32:08;;;;;;;3.83;2.00;;;;;;;20.33;100.00;100956.13;5055374;28;20199;-76
2022/08/22 09:34:41;;;;;;;7.80;2.03;;;;;;;20.36;98.87;100957.75;5060137;28;20280;-76
2022/08/22 09:37:18;;;;;;;3.97;1.90;;;;;;;20.19;95.82;100962.31;5059935;28;20318;-77
2022/08/22 09:39:53;;;;;;;3.73;2.03;;;;;;;20.41;96.56;100966.25;5061398;28;20223;-76
2022/08/22 09:42:27;;;;;;;2.80;1.83;;;;;;;20.43;94.99;100957.25;5056117;28;20304;-77
2022/08/22 09:45:19;;;;;;;3.20;1.80;;;;;;;20.43;94.48;100957.25;5058710;28;20202;-76
2022/08/22 09:47:57;;;;;;;3.25;1.83;;;;;;;20.47;92.88;100955.28;5057482;28;20233;-76
2022/08/22 09:50:39;;;;;;;2.60;1.70;;;;;;;20.52;89.72;100966.44;5057851;28;21013;-77
2022/08/22 09:53:10;;;;;;;3.30;1.70;;;;;;;20.44;84.85;100966.09;5061107;28;20570;-76
2022/08/22 09:55:46;;;;;;;1.88;1.30;;;;;;;20.41;79.17;100976.84;5064546;28;20199;-76
2022/08/22 09:58:22;;;;;;;1.70;1.42;;;;;;;20.33;79.09;100972.00;5060562;28;20226;-76
2022/08/22 10:00:56;;;;;;;2.35;1.27;;;;;;;20.41;78.43;100971.56;5061671;28;20685;-76
2022/08/22 10:03:32;;;;;;;4.22;1.40;;;;;;;20.43;75.98;100972.31;5063078;28;20201;-76
2022/08/22 10:06:04;;;;;;;1.40;1.30;;;;;;;20.32;78.25;100962.38;5055907;28;20226;-76
2022/08/22 10:08:38;;;;;;;2.00;1.30;;;;;;;20.38;79.60;100959.34;5065517;28;20505;-76
2022/08/22 10:11:22;;;;;;;2.03;1.50;;;;;;;20.49;80.13;100955.19;5059612;28;20705;-76
2022/08/22 10:13:54;;;;;;;1.67;1.50;;;;;;;20.54;76.90;100969.84;5058614;28;20345;-76
2022/08/22 10:16:31;;;;;;;2.70;1.50;;;;;;;20.57;76.93;100971.44;5062613;28;20621;-76
2022/08/22 10:19:10;;;;;;;1.42;1.33;;;;;;;20.65;75.26;100968.34;5053385;28;20219;-76
2022/08/22 10:21:44;;;;;;;2.27;1.40;;;;;;;20.67;75.15;100974.38;5062977;28;20732;-76
2022/08/22 10:24:23;;;;;;;1.58;1.23;;;;;;;20.55;76.89;100968.06;5066692;28;20208;-76
2022/08/22 10:26:54;;;;;;;1.98;1.27;;;;;;;20.62;76.67;100972.06;5066407;28;20560;-76
2022/08/22 10:29:38;;;;;;;2.97;1.25;;;;;;;20.69;76.83;100969.88;5071906;28;20221;-76
2022/08/22 10:32:19;;;;;;;2.13;1.50;;;;;;;20.68;76.75;100978.75;5063019;28;20202;-76
2022/08/22 10:34:51;;;;;;;2.83;1.25;;;;;;;20.66;77.12;100976.19;5061312;28;20566;-77
2022/08/22 10:37:24;;;;;;;2.13;1.30;;;;;;;20.70;79.53;100974.19;5069535;28;20200;-77
2022/08/22 10:39:59;;;;;;;1.98;1.10;;;;;;;20.76;77.56;100979.97;5065538;28;20234;-77
2022/08/22 10:42:29;;;;;;;2.33;1.58;;;;;;;20.87;78.03;100975.78;5070418;28;20202;-76
2022/08/22 10:45:14;;;;;;;1.98;1.50;;;;;;;20.92;76.11;100987.78;5057070;28;20206;-77
2022/08/22 10:48:03;;;;;;;2.33;1.50;;;;;;;21.07;79.43;100974.50;5057620;28;20258;-76
2022/08/22 10:50:35;;;;;;;2.95;1.40;;;;;;;21.06;75.04;100978.97;5066213;28;20218;-76
2022/08/22 10:53:32;;;;;;;3.72;1.60;;;;;;;21.16;71.01;100992.47;5064364;28;20555;-76
2022/08/22 10:56:08;;;;;;;1.35;1.25;;;;;;;20.99;72.53;100981.16;5070465;28;20205;-76
2022/08/22 10:58:41;;;;;;;2.90;1.20;;;;;;;20.99;68.21;100991.75;5060327;28;20226;-76
2022/08/22 11:01:13;;;;;;;2.70;1.30;;;;;;;20.99;69.43;100985.59;5073154;28;20214;-76
2022/08/22 11:03:43;;;;;;;3.08;1.40;;;;;;;21.09;68.01;100988.50;5072988;28;20244;-76
2022/08/22 11:06:14;;;;;;;2.00;1.25;;;;;;;21.18;70.99;100980.81;5064118;28;20679;-76
2022/08/22 11:09:04;;;;;;;5.15;1.48;;;;;;;21.16;66.37;100990.66;5065160;28;20721;-76
2022/08/22 11:11:39;;;;;;;4.05;1.40;;;;;;;21.17;66.43;100989.72;5063306;28;20198;-76
2022/08/22 11:14:27;;;;;;;1.98;1.38;;;;;;;21.16;67.25;100980.06;5070012;28;20198;-76
2022/08/22 11:17:09;;;;;;;1.85;1.08;;;;;;;21.23;65.35;100980.53;5073571;28;20206;-76
2022/08/22 11:19:49;;;;;;;3.97;1.38;;;;;;;21.18;69.50;100975.50;5064744;28;20700;-76
2022/08/22 11:22:29;;;;;;;5.05;1.90;;;;;;;21.00;69.00;100976.69;5071633;28;20208;-76
2022/08/22 11:25:26;;;;;;;2.63;1.50;;;;;;;20.99;70.56;100967.91;5069358;28;20202;-76
2022/08/22 11:28:15;;;;;;;2.92;1.60;;;;;;;21.07;67.61;100980.69;5071122;28;20681;-76
2022/08/22 11:30:57;;;;;;;1.48;1.30;;;;;;;20.92;68.63;100984.31;5072626;28;20226;-76
2022/08/22 11:33:28;;;;;;;5.13;1.65;;;;;;;20.93;68.43;100978.91;5069976;28;21017;-76
2022/08/22 11:36:07;;;;;;;1.92;1.73;;;;;;;20.90;71.55;100979.09;5073162;28;20202;-76
2022/08/22 11:38:38;;;;;;;3.67;1.80;;;;;;;21.07;75.16;100971.84;5073239;28;20329;-76
2022/08/22 11:41:11;;;;;;;1.95;1.50;;;;;;;21.12;72.14;100983.84;5068452;28;20546;-76
2022/08/22 11:43:49;;;;;;;3.45;1.80;;;;;;;21.17;75.47;100976.44;5068247;28;20569;-76
2022/08/22 11:46:23;;;;;;;2.50;1.75;;;;;;;21.08;71.33;100987.66;5064326;28;20659;-76
2022/08/22 11:49:05;;;;;;;2.05;1.50;;;;;;;21.00;74.67;100979.34;5067463;28;20227;-76
2022/08/22 11:51:54;;;;;;;1.92;1.58;;;;;;;20.94;73.57;100988.53;5066019;28;20662;-76
2022/08/22 11:54:29;;;;;;;2.58;1.77;;;;;;;20.78;74.30;100987.81;5075232;28;20850;-76
2022/08/22 11:57:04;;;;;;;3.25;1.70;;;;;;;20.93;78.26;100973.59;5066069;28;20197;-76
2022/08/22 11:59:53;;;;;;;2.72;1.80;;;;;;;21.08;76.83;100977.06;5064646;28;20226;-76
2022/08/22 12:02:29;;;;;;;1.98;1.73;;;;;;;21.25;78.86;100986.56;5064030;28;20198;-76
2022/08/22 12:05:03;;;;;;;2.28;1.70;;;;;;;21.29;79.40;100973.97;5070065;28;20585;-76
2022/08/22 12:07:32;;;;;;;3.63;1.80;;;;;;;21.23;74.11;100980.53;5072139;28;20199;-76
2022/08/22 12:10:03;;;;;;;1.63;1.52;;;;;;;21.25;72.44;100981.28;5065673;28;20215;-76
2022/08/22 12:12:44;;;;;;;3.05;1.77;;;;;;;21.20;73.80;100979.88;5065125;28;20224;-76